sensor_id;sensor_type;location;lat;lon;timestamp;P1;durP1;ratioP1;P2;durP2;ratioP2
17832;SDS011;9041;49.718;21.798;2023-02-01T00:01:45;9.27;;;4.73;;
17832;SDS011;9041;49.718;21.798;2023-02-01T00:04:12;12.77;;;5.33;;
17832;SDS011;9041;49.718;21.798;2023-02-01T00:06:39;12.27;;;4.97;;
17832;SDS011;9041;49.718;21.798;2023-02-01T00:09:06;10.27;;;4.90;;
17832;SDS011;9041;49.718;21.798;2023-02-01T00:11:33;11.43;;;5.33;;
17832;SDS011;9041;49.718;21.798;2023-02-01T00:14:01;12.73;;;5.73;;
17832;SDS011;9041;49.718;21.798;2023-02-01T00:16:29;12.03;;;5.07;;
17832;SDS011;9041;49.718;21.798;2023-02-01T00:18:57;10.33;;;5.03;;
17832;SDS011;9041;49.718;21.798;2023-02-01T00:21:25;12.03;;;5.07;;
17832;SDS011;9041;49.718;21.798;2023-02-01T00:23:52;12.67;;;5.13;;
17832;SDS011;9041;49.718;21.798;2023-02-01T00:26:19;12.50;;;5.50;;
17832;SDS011;9041;49.718;21.798;2023-02-01T00:28:46;34.57;;;13.07;;
17832;SDS011;9041;49.718;21.798;2023-02-01T00:31:14;25.90;;;11.47;;
17832;SDS011;9041;49.718;21.798;2023-02-01T00:33:41;15.87;;;7.70;;
17832;SDS011;9041;49.718;21.798;2023-02-01T00:36:08;13.53;;;7.00;;
17832;SDS011;9041;49.718;21.798;2023-02-01T00:38:36;12.20;;;5.63;;
17832;SDS011;9041;49.718;21.798;2023-02-01T00:41:04;13.97;;;6.43;;
17832;SDS011;9041;49.718;21.798;2023-02-01T00:43:31;14.23;;;5.93;;
17832;SDS011;9041;49.718;21.798;2023-02-01T00:45:59;13.23;;;5.93;;
17832;SDS011;9041;49.718;21.798;2023-02-01T00:48:28;13.30;;;6.57;;
17832;SDS011;9041;49.718;21.798;2023-02-01T00:50:54;15.10;;;7.80;;
17832;SDS011;9041;49.718;21.798;2023-02-01T00:53:25;16.80;;;7.40;;
17832;SDS011;9041;49.718;21.798;2023-02-01T00:55:52;19.17;;;7.90;;
17832;SDS011;9041;49.718;21.798;2023-02-01T00:58:18;13.63;;;6.30;;
17832;SDS011;9041;49.718;21.798;2023-02-01T01:00:45;15.67;;;7.23;;
17832;SDS011;9041;49.718;21.798;2023-02-01T01:03:14;15.13;;;6.40;;
17832;SDS011;9041;49.718;21.798;2023-02-01T01:05:45;14.20;;;6.00;;
17832;SDS011;9041;49.718;21.798;2023-02-01T01:08:12;21.20;;;10.00;;
17832;SDS011;9041;49.718;21.798;2023-02-01T01:10:39;19.23;;;10.37;;
17832;SDS011;9041;49.718;21.798;2023-02-01T01:13:07;20.87;;;8.30;;
17832;SDS011;9041;49.718;21.798;2023-02-01T01:15:35;12.13;;;5.60;;
17832;SDS011;9041;49.718;21.798;2023-02-01T01:18:02;10.43;;;5.60;;
17832;SDS011;9041;49.718;21.798;2023-02-01T01:20:29;11.83;;;6.00;;
17832;SDS011;9041;49.718;21.798;2023-02-01T01:22:58;14.87;;;6.17;;
17832;SDS011;9041;49.718;21.798;2023-02-01T01:25:24;11.97;;;5.70;;
17832;SDS011;9041;49.718;21.798;2023-02-01T01:27:51;13.47;;;5.57;;
17832;SDS011;9041;49.718;21.798;2023-02-01T01:30:20;10.73;;;5.50;;
17832;SDS011;9041;49.718;21.798;2023-02-01T01:32:47;11.73;;;7.30;;
17832;SDS011;9041;49.718;21.798;2023-02-01T01:35:14;10.20;;;5.37;;
17832;SDS011;9041;49.718;21.798;2023-02-01T01:37:41;8.63;;;5.30;;
17832;SDS011;9041;49.718;21.798;2023-02-01T01:40:10;11.30;;;5.73;;
17832;SDS011;9041;49.718;21.798;2023-02-01T01:42:38;13.73;;;6.83;;
17832;SDS011;9041;49.718;21.798;2023-02-01T01:45:07;19.67;;;7.70;;
17832;SDS011;9041;49.718;21.798;2023-02-01T01:47:39;20.67;;;8.13;;
17832;SDS011;9041;49.718;21.798;2023-02-01T01:50:12;19.13;;;7.77;;
17832;SDS011;9041;49.718;21.798;2023-02-01T01:52:41;15.33;;;7.20;;
17832;SDS011;9041;49.718;21.798;2023-02-01T01:55:11;15.83;;;7.60;;
17832;SDS011;9041;49.718;21.798;2023-02-01T01:57:39;20.10;;;8.07;;
17832;SDS011;9041;49.718;21.798;2023-02-01T02:00:09;18.50;;;8.17;;
17832;SDS011;9041;49.718;21.798;2023-02-01T02:02:37;12.97;;;7.03;;
17832;SDS011;9041;49.718;21.798;2023-02-01T02:05:05;13.47;;;6.03;;
17832;SDS011;9041;49.718;21.798;2023-02-01T02:07:34;9.33;;;5.30;;
17832;SDS011;9041;49.718;21.798;2023-02-01T02:10:03;7.77;;;4.40;;
17832;SDS011;9041;49.718;21.798;2023-02-01T02:12:33;6.60;;;3.50;;
17832;SDS011;9041;49.718;21.798;2023-02-01T02:14:59;7.27;;;3.73;;
17832;SDS011;9041;49.718;21.798;2023-02-01T02:17:31;6.43;;;3.90;;
17832;SDS011;9041;49.718;21.798;2023-02-01T02:20:09;7.57;;;4.00;;
17832;SDS011;9041;49.718;21.798;2023-02-01T02:26:05;8.37;;;4.17;;
17832;SDS011;9041;49.718;21.798;2023-02-01T02:29:20;9.10;;;3.73;;
17832;SDS011;9041;49.718;21.798;2023-02-01T02:32:08;6.83;;;3.23;;
17832;SDS011;9041;49.718;21.798;2023-02-01T02:34:47;7.73;;;3.80;;
17832;SDS011;9041;49.718;21.798;2023-02-01T02:37:22;4.70;;;3.20;;
17832;SDS011;9041;49.718;21.798;2023-02-01T02:39:54;8.43;;;3.47;;
17832;SDS011;9041;49.718;21.798;2023-02-01T02:42:26;6.37;;;3.20;;
17832;SDS011;9041;49.718;21.798;2023-02-01T02:45:16;7.50;;;3.20;;
17832;SDS011;9041;49.718;21.798;2023-02-01T02:48:04;7.80;;;3.73;;
17832;SDS011;9041;49.718;21.798;2023-02-01T02:50:37;5.97;;;3.20;;
17832;SDS011;9041;49.718;21.798;2023-02-01T02:53:25;6.00;;;3.30;;
17832;SDS011;9041;49.718;21.798;2023-02-01T02:56:11;6.40;;;3.10;;
17832;SDS011;9041;49.718;21.798;2023-02-01T02:58:56;5.83;;;3.00;;
17832;SDS011;9041;49.718;21.798;2023-02-01T03:01:41;4.97;;;3.23;;
17832;SDS011;9041;49.718;21.798;2023-02-01T03:04:25;5.37;;;3.30;;
17832;SDS011;9041;49.718;21.798;2023-02-01T03:06:54;3.60;;;2.40;;
17832;SDS011;9041;49.718;21.798;2023-02-01T03:09:22;3.50;;;2.20;;
17832;SDS011;9041;49.718;21.798;2023-02-01T03:11:52;4.60;;;2.17;;
17832;SDS011;9041;49.718;21.798;2023-02-01T03:14:43;2.53;;;2.00;;
17832;SDS011;9041;49.718;21.798;2023-02-01T03:17:13;3.50;;;1.80;;
17832;SDS011;9041;49.718;21.798;2023-02-01T03:19:42;3.80;;;2.13;;
17832;SDS011;9041;49.718;21.798;2023-02-01T03:22:16;3.00;;;2.23;;
17832;SDS011;9041;49.718;21.798;2023-02-01T03:24:44;7.17;;;2.17;;
17832;SDS011;9041;49.718;21.798;2023-02-01T03:27:13;3.87;;;2.27;;
17832;SDS011;9041;49.718;21.798;2023-02-01T03:29:45;3.30;;;2.00;;
17832;SDS011;9041;49.718;21.798;2023-02-01T03:32:15;5.30;;;1.87;;
17832;SDS011;9041;49.718;21.798;2023-02-01T03:34:41;2.97;;;2.03;;
17832;SDS011;9041;49.718;21.798;2023-02-01T03:37:09;2.57;;;1.90;;
17832;SDS011;9041;49.718;21.798;2023-02-01T03:39:39;4.00;;;2.50;;
17832;SDS011;9041;49.718;21.798;2023-02-01T03:42:10;4.33;;;1.80;;
17832;SDS011;9041;49.718;21.798;2023-02-01T03:44:41;2.57;;;1.80;;
17832;SDS011;9041;49.718;21.798;2023-02-01T03:47:13;6.03;;;1.97;;
17832;SDS011;9041;49.718;21.798;2023-02-01T03:49:45;3.60;;;2.03;;
17832;SDS011;9041;49.718;21.798;2023-02-01T03:52:16;3.77;;;2.10;;
17832;SDS011;9041;49.718;21.798;2023-02-01T03:54:46;2.97;;;1.80;;
17832;SDS011;9041;49.718;21.798;2023-02-01T03:57:16;5.93;;;2.13;;
17832;SDS011;9041;49.718;21.798;2023-02-01T03:59:44;3.17;;;2.30;;
17832;SDS011;9041;49.718;21.798;2023-02-01T04:02:11;4.73;;;2.50;;
17832;SDS011;9041;49.718;21.798;2023-02-01T04:04:38;5.03;;;2.30;;
17832;SDS011;9041;49.718;21.798;2023-02-01T04:07:05;4.57;;;2.17;;
17832;SDS011;9041;49.718;21.798;2023-02-01T04:09:32;3.70;;;2.30;;
17832;SDS011;9041;49.718;21.798;2023-02-01T04:12:00;4.57;;;2.20;;
17832;SDS011;9041;49.718;21.798;2023-02-01T04:14:27;6.67;;;2.50;;
17832;SDS011;9041;49.718;21.798;2023-02-01T04:16:54;4.37;;;2.30;;
17832;SDS011;9041;49.718;21.798;2023-02-01T04:19:21;6.00;;;2.43;;
17832;SDS011;9041;49.718;21.798;2023-02-01T04:21:47;7.07;;;2.30;;
17832;SDS011;9041;49.718;21.798;2023-02-01T04:24:14;5.53;;;2.40;;
17832;SDS011;9041;49.718;21.798;2023-02-01T04:26:41;10.50;;;2.40;;
17832;SDS011;9041;49.718;21.798;2023-02-01T04:29:09;9.57;;;2.77;;
17832;SDS011;9041;49.718;21.798;2023-02-01T04:31:36;9.97;;;2.80;;
17832;SDS011;9041;49.718;21.798;2023-02-01T04:34:03;5.13;;;2.40;;
17832;SDS011;9041;49.718;21.798;2023-02-01T04:36:29;4.67;;;2.13;;
17832;SDS011;9041;49.718;21.798;2023-02-01T04:38:56;4.60;;;2.03;;
17832;SDS011;9041;49.718;21.798;2023-02-01T04:41:23;3.10;;;2.20;;
17832;SDS011;9041;49.718;21.798;2023-02-01T04:43:50;9.23;;;2.20;;
17832;SDS011;9041;49.718;21.798;2023-02-01T04:46:19;3.83;;;2.00;;
17832;SDS011;9041;49.718;21.798;2023-02-01T04:48:45;6.43;;;2.00;;
17832;SDS011;9041;49.718;21.798;2023-02-01T04:51:12;10.00;;;2.17;;
17832;SDS011;9041;49.718;21.798;2023-02-01T04:53:40;9.30;;;2.60;;
17832;SDS011;9041;49.718;21.798;2023-02-01T04:56:07;5.73;;;2.37;;
17832;SDS011;9041;49.718;21.798;2023-02-01T04:58:34;6.70;;;2.30;;
17832;SDS011;9041;49.718;21.798;2023-02-01T05:01:01;6.13;;;2.30;;
17832;SDS011;9041;49.718;21.798;2023-02-01T05:03:30;8.20;;;2.20;;
17832;SDS011;9041;49.718;21.798;2023-02-01T05:05:58;6.20;;;2.37;;
17832;SDS011;9041;49.718;21.798;2023-02-01T05:08:25;11.83;;;2.37;;
17832;SDS011;9041;49.718;21.798;2023-02-01T05:10:53;5.53;;;2.47;;
17832;SDS011;9041;49.718;21.798;2023-02-01T05:13:20;11.93;;;2.37;;
17832;SDS011;9041;49.718;21.798;2023-02-01T05:16:05;6.87;;;2.57;;
17832;SDS011;9041;49.718;21.798;2023-02-01T05:18:33;10.10;;;2.53;;
17832;SDS011;9041;49.718;21.798;2023-02-01T05:21:00;12.37;;;2.27;;
17832;SDS011;9041;49.718;21.798;2023-02-01T05:23:27;9.10;;;2.57;;
17832;SDS011;9041;49.718;21.798;2023-02-01T05:25:57;27.73;;;6.73;;
17832;SDS011;9041;49.718;21.798;2023-02-01T05:28:25;58.07;;;16.50;;
17832;SDS011;9041;49.718;21.798;2023-02-01T05:30:51;23.73;;;6.40;;
17832;SDS011;9041;49.718;21.798;2023-02-01T05:33:18;9.83;;;3.50;;
17832;SDS011;9041;49.718;21.798;2023-02-01T05:35:46;8.37;;;2.90;;
17832;SDS011;9041;49.718;21.798;2023-02-01T05:38:13;13.80;;;3.10;;
17832;SDS011;9041;49.718;21.798;2023-02-01T05:40:40;10.30;;;2.60;;
17832;SDS011;9041;49.718;21.798;2023-02-01T05:43:06;10.23;;;2.60;;
17832;SDS011;9041;49.718;21.798;2023-02-01T05:45:33;8.73;;;2.30;;
17832;SDS011;9041;49.718;21.798;2023-02-01T05:48:00;7.73;;;2.70;;
17832;SDS011;9041;49.718;21.798;2023-02-01T05:50:27;7.07;;;2.17;;
17832;SDS011;9041;49.718;21.798;2023-02-01T05:52:55;10.63;;;2.10;;
17832;SDS011;9041;49.718;21.798;2023-02-01T05:55:21;9.10;;;2.80;;
17832;SDS011;9041;49.718;21.798;2023-02-01T05:57:48;8.27;;;2.70;;
17832;SDS011;9041;49.718;21.798;2023-02-01T06:00:15;9.47;;;2.73;;
17832;SDS011;9041;49.718;21.798;2023-02-01T06:02:42;7.50;;;2.30;;
17832;SDS011;9041;49.718;21.798;2023-02-01T06:05:09;11.33;;;2.67;;
17832;SDS011;9041;49.718;21.798;2023-02-01T06:07:35;6.53;;;2.77;;
17832;SDS011;9041;49.718;21.798;2023-02-01T06:10:04;9.00;;;2.77;;
17832;SDS011;9041;49.718;21.798;2023-02-01T06:12:31;13.03;;;2.53;;
17832;SDS011;9041;49.718;21.798;2023-02-01T06:14:58;13.33;;;2.70;;
17832;SDS011;9041;49.718;21.798;2023-02-01T06:17:24;6.33;;;2.23;;
17832;SDS011;9041;49.718;21.798;2023-02-01T06:19:51;13.87;;;3.10;;
17832;SDS011;9041;49.718;21.798;2023-02-01T06:22:18;9.77;;;3.27;;
17832;SDS011;9041;49.718;21.798;2023-02-01T06:24:44;14.97;;;3.10;;
17832;SDS011;9041;49.718;21.798;2023-02-01T06:27:12;9.47;;;2.80;;
17832;SDS011;9041;49.718;21.798;2023-02-01T06:29:39;8.53;;;3.00;;
17832;SDS011;9041;49.718;21.798;2023-02-01T06:32:06;14.00;;;3.30;;
17832;SDS011;9041;49.718;21.798;2023-02-01T06:34:34;10.77;;;3.00;;
17832;SDS011;9041;49.718;21.798;2023-02-01T06:37:02;8.87;;;2.93;;
17832;SDS011;9041;49.718;21.798;2023-02-01T06:39:29;13.60;;;2.80;;
17832;SDS011;9041;49.718;21.798;2023-02-01T06:41:56;12.77;;;3.10;;
17832;SDS011;9041;49.718;21.798;2023-02-01T06:44:24;8.67;;;3.00;;
17832;SDS011;9041;49.718;21.798;2023-02-01T06:46:50;15.07;;;3.37;;
17832;SDS011;9041;49.718;21.798;2023-02-01T06:49:17;8.23;;;2.97;;
17832;SDS011;9041;49.718;21.798;2023-02-01T06:51:44;7.50;;;3.00;;
17832;SDS011;9041;49.718;21.798;2023-02-01T06:54:11;11.17;;;2.57;;
17832;SDS011;9041;49.718;21.798;2023-02-01T06:56:38;8.47;;;2.97;;
17832;SDS011;9041;49.718;21.798;2023-02-01T06:59:05;8.80;;;2.93;;
17832;SDS011;9041;49.718;21.798;2023-02-01T07:01:33;12.33;;;3.70;;
17832;SDS011;9041;49.718;21.798;2023-02-01T07:04:00;29.27;;;12.53;;
17832;SDS011;9041;49.718;21.798;2023-02-01T07:06:27;13.50;;;6.17;;
17832;SDS011;9041;49.718;21.798;2023-02-01T07:08:54;14.30;;;5.30;;
17832;SDS011;9041;49.718;21.798;2023-02-01T07:11:21;12.87;;;4.80;;
17832;SDS011;9041;49.718;21.798;2023-02-01T07:13:48;9.30;;;4.00;;
17832;SDS011;9041;49.718;21.798;2023-02-01T07:16:16;8.60;;;4.07;;
17832;SDS011;9041;49.718;21.798;2023-02-01T07:18:45;12.73;;;4.47;;
17832;SDS011;9041;49.718;21.798;2023-02-01T07:21:12;12.60;;;4.97;;
17832;SDS011;9041;49.718;21.798;2023-02-01T07:23:39;13.33;;;4.27;;
17832;SDS011;9041;49.718;21.798;2023-02-01T07:26:06;9.40;;;4.00;;
17832;SDS011;9041;49.718;21.798;2023-02-01T07:28:34;9.37;;;3.73;;
17832;SDS011;9041;49.718;21.798;2023-02-01T07:31:03;10.30;;;4.17;;
17832;SDS011;9041;49.718;21.798;2023-02-01T07:33:30;6.93;;;3.33;;
17832;SDS011;9041;49.718;21.798;2023-02-01T07:35:59;7.37;;;3.10;;
17832;SDS011;9041;49.718;21.798;2023-02-01T07:38:26;11.87;;;3.83;;
17832;SDS011;9041;49.718;21.798;2023-02-01T07:40:56;11.87;;;4.20;;
17832;SDS011;9041;49.718;21.798;2023-02-01T07:43:23;16.53;;;5.17;;
17832;SDS011;9041;49.718;21.798;2023-02-01T07:45:51;7.60;;;3.80;;
17832;SDS011;9041;49.718;21.798;2023-02-01T07:48:18;13.70;;;5.20;;
17832;SDS011;9041;49.718;21.798;2023-02-01T07:50:45;22.90;;;6.47;;
17832;SDS011;9041;49.718;21.798;2023-02-01T07:53:13;34.17;;;11.70;;
17832;SDS011;9041;49.718;21.798;2023-02-01T07:55:40;9.93;;;4.70;;
17832;SDS011;9041;49.718;21.798;2023-02-01T07:58:07;34.67;;;10.20;;
17832;SDS011;9041;49.718;21.798;2023-02-01T08:00:34;17.03;;;4.27;;
17832;SDS011;9041;49.718;21.798;2023-02-01T08:03:18;10.67;;;4.03;;
17832;SDS011;9041;49.718;21.798;2023-02-01T08:05:45;8.23;;;4.03;;
17832;SDS011;9041;49.718;21.798;2023-02-01T08:08:13;11.50;;;4.57;;
17832;SDS011;9041;49.718;21.798;2023-02-01T08:10:39;13.30;;;5.03;;
17832;SDS011;9041;49.718;21.798;2023-02-01T08:13:06;12.27;;;4.50;;
17832;SDS011;9041;49.718;21.798;2023-02-01T08:15:34;24.33;;;6.60;;
17832;SDS011;9041;49.718;21.798;2023-02-01T08:18:01;16.50;;;5.03;;
17832;SDS011;9041;49.718;21.798;2023-02-01T08:20:29;7.20;;;3.77;;
17832;SDS011;9041;49.718;21.798;2023-02-01T08:22:56;15.30;;;5.67;;
17832;SDS011;9041;49.718;21.798;2023-02-01T08:25:24;12.60;;;4.80;;
17832;SDS011;9041;49.718;21.798;2023-02-01T08:27:52;13.73;;;5.87;;
17832;SDS011;9041;49.718;21.798;2023-02-01T08:30:20;14.17;;;4.03;;
17832;SDS011;9041;49.718;21.798;2023-02-01T08:32:47;19.10;;;5.23;;
17832;SDS011;9041;49.718;21.798;2023-02-01T08:35:14;29.23;;;10.07;;
17832;SDS011;9041;49.718;21.798;2023-02-01T08:37:40;71.07;;;19.87;;
17832;SDS011;9041;49.718;21.798;2023-02-01T08:40:08;124.07;;;28.33;;
17832;SDS011;9041;49.718;21.798;2023-02-01T08:42:37;111.10;;;27.43;;
17832;SDS011;9041;49.718;21.798;2023-02-01T08:45:19;78.20;;;21.07;;
17832;SDS011;9041;49.718;21.798;2023-02-01T08:47:48;42.30;;;12.10;;
17832;SDS011;9041;49.718;21.798;2023-02-01T08:50:15;56.50;;;13.07;;
17832;SDS011;9041;49.718;21.798;2023-02-01T08:52:42;41.80;;;11.43;;
17832;SDS011;9041;49.718;21.798;2023-02-01T08:55:09;30.37;;;9.30;;
17832;SDS011;9041;49.718;21.798;2023-02-01T08:57:38;178.17;;;41.17;;
17832;SDS011;9041;49.718;21.798;2023-02-01T09:00:05;155.90;;;37.83;;
17832;SDS011;9041;49.718;21.798;2023-02-01T09:02:34;71.10;;;20.60;;
17832;SDS011;9041;49.718;21.798;2023-02-01T09:05:01;70.50;;;23.17;;
17832;SDS011;9041;49.718;21.798;2023-02-01T09:07:29;44.40;;;14.30;;
17832;SDS011;9041;49.718;21.798;2023-02-01T09:09:55;55.47;;;14.43;;
17832;SDS011;9041;49.718;21.798;2023-02-01T09:12:26;47.37;;;11.53;;
17832;SDS011;9041;49.718;21.798;2023-02-01T09:14:54;47.17;;;9.40;;
17832;SDS011;9041;49.718;21.798;2023-02-01T09:17:22;47.37;;;10.47;;
17832;SDS011;9041;49.718;21.798;2023-02-01T09:19:49;20.87;;;5.53;;
17832;SDS011;9041;49.718;21.798;2023-02-01T09:22:15;44.23;;;10.97;;
17832;SDS011;9041;49.718;21.798;2023-02-01T09:24:42;51.00;;;13.57;;
17832;SDS011;9041;49.718;21.798;2023-02-01T09:27:09;64.93;;;18.80;;
17832;SDS011;9041;49.718;21.798;2023-02-01T09:29:36;37.63;;;10.20;;
17832;SDS011;9041;49.718;21.798;2023-02-01T09:32:05;22.63;;;7.47;;
17832;SDS011;9041;49.718;21.798;2023-02-01T09:34:32;15.87;;;5.47;;
17832;SDS011;9041;49.718;21.798;2023-02-01T09:36:59;14.60;;;4.90;;
17832;SDS011;9041;49.718;21.798;2023-02-01T09:39:25;17.50;;;4.70;;
17832;SDS011;9041;49.718;21.798;2023-02-01T09:41:56;13.17;;;4.47;;
17832;SDS011;9041;49.718;21.798;2023-02-01T09:47:18;13.00;;;4.63;;
17832;SDS011;9041;49.718;21.798;2023-02-01T09:49:48;10.27;;;3.83;;
17832;SDS011;9041;49.718;21.798;2023-02-01T09:52:19;22.83;;;4.80;;
17832;SDS011;9041;49.718;21.798;2023-02-01T09:54:49;16.20;;;5.10;;
17832;SDS011;9041;49.718;21.798;2023-02-01T09:57:19;24.87;;;6.17;;
17832;SDS011;9041;49.718;21.798;2023-02-01T09:59:50;26.43;;;7.67;;
17832;SDS011;9041;49.718;21.798;2023-02-01T10:02:23;31.87;;;9.10;;
17832;SDS011;9041;49.718;21.798;2023-02-01T10:04:52;32.63;;;9.67;;
17832;SDS011;9041;49.718;21.798;2023-02-01T10:07:22;36.73;;;11.27;;
17832;SDS011;9041;49.718;21.798;2023-02-01T10:09:58;23.20;;;6.70;;
17832;SDS011;9041;49.718;21.798;2023-02-01T10:12:38;18.03;;;5.67;;
17832;SDS011;9041;49.718;21.798;2023-02-01T10:15:35;19.57;;;6.10;;
17832;SDS011;9041;49.718;21.798;2023-02-01T10:18:18;13.53;;;5.40;;
17832;SDS011;9041;49.718;21.798;2023-02-01T10:20:52;18.03;;;4.40;;
17832;SDS011;9041;49.718;21.798;2023-02-01T10:23:30;18.50;;;4.10;;
17832;SDS011;9041;49.718;21.798;2023-02-01T10:26:05;15.03;;;4.10;;
17832;SDS011;9041;49.718;21.798;2023-02-01T10:28:39;17.60;;;6.27;;
17832;SDS011;9041;49.718;21.798;2023-02-01T10:31:06;33.30;;;12.83;;
17832;SDS011;9041;49.718;21.798;2023-02-01T10:33:38;34.73;;;14.17;;
17832;SDS011;9041;49.718;21.798;2023-02-01T10:36:10;25.50;;;7.10;;
17832;SDS011;9041;49.718;21.798;2023-02-01T10:38:42;15.10;;;5.10;;
17832;SDS011;9041;49.718;21.798;2023-02-01T10:41:10;23.40;;;6.10;;
17832;SDS011;9041;49.718;21.798;2023-02-01T10:43:39;23.33;;;6.03;;
17832;SDS011;9041;49.718;21.798;2023-02-01T10:46:06;22.60;;;7.53;;
17832;SDS011;9041;49.718;21.798;2023-02-01T10:48:35;22.27;;;6.90;;
17832;SDS011;9041;49.718;21.798;2023-02-01T10:51:02;20.40;;;6.07;;
17832;SDS011;9041;49.718;21.798;2023-02-01T10:53:33;13.30;;;5.13;;
17832;SDS011;9041;49.718;21.798;2023-02-01T10:56:05;20.50;;;5.40;;
17832;SDS011;9041;49.718;21.798;2023-02-01T10:58:32;12.03;;;5.17;;
17832;SDS011;9041;49.718;21.798;2023-02-01T11:01:02;12.00;;;4.87;;
17832;SDS011;9041;49.718;21.798;2023-02-01T11:03:32;16.53;;;5.27;;
17832;SDS011;9041;49.718;21.798;2023-02-01T11:06:02;14.23;;;5.23;;
17832;SDS011;9041;49.718;21.798;2023-02-01T11:08:41;16.53;;;5.37;;
17832;SDS011;9041;49.718;21.798;2023-02-01T11:11:10;17.60;;;5.07;;
17832;SDS011;9041;49.718;21.798;2023-02-01T11:13:37;14.20;;;5.10;;
17832;SDS011;9041;49.718;21.798;2023-02-01T11:16:05;13.73;;;5.80;;
17832;SDS011;9041;49.718;21.798;2023-02-01T11:18:35;16.60;;;6.23;;
17832;SDS011;9041;49.718;21.798;2023-02-01T11:21:05;13.53;;;5.57;;
17832;SDS011;9041;49.718;21.798;2023-02-01T11:23:32;23.27;;;6.47;;
17832;SDS011;9041;49.718;21.798;2023-02-01T11:26:02;16.27;;;5.77;;
17832;SDS011;9041;49.718;21.798;2023-02-01T11:28:35;16.50;;;4.40;;
17832;SDS011;9041;49.718;21.798;2023-02-01T11:31:05;13.13;;;4.37;;
17832;SDS011;9041;49.718;21.798;2023-02-01T11:33:35;15.20;;;5.40;;
17832;SDS011;9041;49.718;21.798;2023-02-01T11:36:07;14.80;;;4.50;;
17832;SDS011;9041;49.718;21.798;2023-02-01T11:38:35;12.37;;;4.40;;
17832;SDS011;9041;49.718;21.798;2023-02-01T11:41:11;16.03;;;4.73;;
17832;SDS011;9041;49.718;21.798;2023-02-01T11:43:50;13.50;;;4.73;;
17832;SDS011;9041;49.718;21.798;2023-02-01T11:46:18;14.37;;;5.43;;
17832;SDS011;9041;49.718;21.798;2023-02-01T11:48:50;15.10;;;4.80;;
17832;SDS011;9041;49.718;21.798;2023-02-01T11:51:21;15.00;;;5.60;;
17832;SDS011;9041;49.718;21.798;2023-02-01T11:53:59;16.30;;;4.83;;
17832;SDS011;9041;49.718;21.798;2023-02-01T11:56:33;22.97;;;7.27;;
17832;SDS011;9041;49.718;21.798;2023-02-01T11:59:06;20.13;;;5.83;;
17832;SDS011;9041;49.718;21.798;2023-02-01T12:01:43;16.90;;;6.13;;
17832;SDS011;9041;49.718;21.798;2023-02-01T12:07:16;27.87;;;8.87;;
17832;SDS011;9041;49.718;21.798;2023-02-01T12:12:33;17.00;;;5.20;;
17832;SDS011;9041;49.718;21.798;2023-02-01T12:15:10;12.13;;;4.87;;
17832;SDS011;9041;49.718;21.798;2023-02-01T12:20:59;14.00;;;4.07;;
17832;SDS011;9041;49.718;21.798;2023-02-01T12:23:41;12.40;;;4.40;;
17832;SDS011;9041;49.718;21.798;2023-02-01T12:26:21;8.60;;;3.60;;
17832;SDS011;9041;49.718;21.798;2023-02-01T12:29:02;12.70;;;4.43;;
17832;SDS011;9041;49.718;21.798;2023-02-01T12:31:43;19.30;;;5.60;;
17832;SDS011;9041;49.718;21.798;2023-02-01T12:34:26;13.53;;;4.40;;
17832;SDS011;9041;49.718;21.798;2023-02-01T12:37:04;10.20;;;4.10;;
17832;SDS011;9041;49.718;21.798;2023-02-01T12:39:38;16.10;;;5.03;;
17832;SDS011;9041;49.718;21.798;2023-02-01T12:42:08;14.27;;;5.10;;
17832;SDS011;9041;49.718;21.798;2023-02-01T12:44:43;8.57;;;3.60;;
17832;SDS011;9041;49.718;21.798;2023-02-01T12:47:12;15.03;;;3.87;;
17832;SDS011;9041;49.718;21.798;2023-02-01T12:49:46;11.07;;;4.60;;
17832;SDS011;9041;49.718;21.798;2023-02-01T12:52:16;14.97;;;4.10;;
17832;SDS011;9041;49.718;21.798;2023-02-01T12:54:48;41.43;;;9.80;;
17832;SDS011;9041;49.718;21.798;2023-02-01T12:57:17;15.73;;;5.40;;
17832;SDS011;9041;49.718;21.798;2023-02-01T12:59:51;11.57;;;4.87;;
17832;SDS011;9041;49.718;21.798;2023-02-01T13:02:22;98.40;;;22.50;;
17832;SDS011;9041;49.718;21.798;2023-02-01T13:04:54;45.40;;;14.43;;
17832;SDS011;9041;49.718;21.798;2023-02-01T13:07:24;34.27;;;11.63;;
17832;SDS011;9041;49.718;21.798;2023-02-01T13:09:56;33.50;;;14.67;;
17832;SDS011;9041;49.718;21.798;2023-02-01T13:12:26;35.10;;;13.20;;
17832;SDS011;9041;49.718;21.798;2023-02-01T13:14:56;21.73;;;8.67;;
17832;SDS011;9041;49.718;21.798;2023-02-01T13:17:26;15.03;;;4.87;;
17832;SDS011;9041;49.718;21.798;2023-02-01T13:19:57;13.00;;;3.90;;
17832;SDS011;9041;49.718;21.798;2023-02-01T13:22:27;7.07;;;3.20;;
17832;SDS011;9041;49.718;21.798;2023-02-01T13:24:57;11.00;;;5.03;;
17832;SDS011;9041;49.718;21.798;2023-02-01T13:27:26;11.47;;;4.20;;
17832;SDS011;9041;49.718;21.798;2023-02-01T13:29:56;11.47;;;4.33;;
17832;SDS011;9041;49.718;21.798;2023-02-01T13:38:14;29.30;;;7.43;;
17832;SDS011;9041;49.718;21.798;2023-02-01T13:41:03;24.97;;;8.70;;
17832;SDS011;9041;49.718;21.798;2023-02-01T13:43:40;11.07;;;4.60;;
17832;SDS011;9041;49.718;21.798;2023-02-01T13:46:09;12.57;;;4.97;;
17832;SDS011;9041;49.718;21.798;2023-02-01T13:48:40;33.93;;;10.83;;
17832;SDS011;9041;49.718;21.798;2023-02-01T13:51:07;19.27;;;6.17;;
17832;SDS011;9041;49.718;21.798;2023-02-01T13:53:35;13.77;;;5.23;;
17832;SDS011;9041;49.718;21.798;2023-02-01T13:56:07;11.40;;;3.93;;
17832;SDS011;9041;49.718;21.798;2023-02-01T13:58:38;10.40;;;4.00;;
17832;SDS011;9041;49.718;21.798;2023-02-01T14:07:22;13.07;;;4.13;;
17832;SDS011;9041;49.718;21.798;2023-02-01T14:09:49;9.47;;;4.07;;
17832;SDS011;9041;49.718;21.798;2023-02-01T14:15:17;19.37;;;7.07;;
17832;SDS011;9041;49.718;21.798;2023-02-01T14:17:47;22.17;;;7.47;;
17832;SDS011;9041;49.718;21.798;2023-02-01T14:23:04;9.13;;;3.83;;
17832;SDS011;9041;49.718;21.798;2023-02-01T14:25:44;8.53;;;3.90;;
17832;SDS011;9041;49.718;21.798;2023-02-01T14:28:16;11.03;;;4.13;;
17832;SDS011;9041;49.718;21.798;2023-02-01T14:30:49;9.30;;;4.33;;
17832;SDS011;9041;49.718;21.798;2023-02-01T14:33:20;11.97;;;4.50;;
17832;SDS011;9041;49.718;21.798;2023-02-01T14:35:55;16.20;;;5.40;;
17832;SDS011;9041;49.718;21.798;2023-02-01T14:38:28;12.73;;;4.60;;
17832;SDS011;9041;49.718;21.798;2023-02-01T14:41:09;13.70;;;5.07;;
17832;SDS011;9041;49.718;21.798;2023-02-01T14:43:51;11.80;;;5.50;;
17832;SDS011;9041;49.718;21.798;2023-02-01T14:49:54;18.90;;;5.47;;
17832;SDS011;9041;49.718;21.798;2023-02-01T14:52:29;12.43;;;5.30;;
17832;SDS011;9041;49.718;21.798;2023-02-01T14:55:04;12.40;;;5.00;;
17832;SDS011;9041;49.718;21.798;2023-02-01T14:57:39;11.37;;;4.93;;
17832;SDS011;9041;49.718;21.798;2023-02-01T15:00:13;10.90;;;3.77;;
17832;SDS011;9041;49.718;21.798;2023-02-01T15:02:51;15.10;;;6.37;;
17832;SDS011;9041;49.718;21.798;2023-02-01T15:05:38;11.23;;;3.83;;
17832;SDS011;9041;49.718;21.798;2023-02-01T15:08:06;13.50;;;4.67;;
17832;SDS011;9041;49.718;21.798;2023-02-01T15:10:42;9.97;;;4.57;;
17832;SDS011;9041;49.718;21.798;2023-02-01T15:16:04;14.17;;;6.03;;
17832;SDS011;9041;49.718;21.798;2023-02-01T15:18:34;16.13;;;6.80;;
17832;SDS011;9041;49.718;21.798;2023-02-01T15:21:02;16.50;;;6.50;;
17832;SDS011;9041;49.718;21.798;2023-02-01T15:23:31;12.73;;;5.27;;
17832;SDS011;9041;49.718;21.798;2023-02-01T15:25:58;20.00;;;7.47;;
17832;SDS011;9041;49.718;21.798;2023-02-01T15:28:25;16.53;;;6.27;;
17832;SDS011;9041;49.718;21.798;2023-02-01T15:30:54;12.57;;;6.33;;
17832;SDS011;9041;49.718;21.798;2023-02-01T15:33:23;15.17;;;6.17;;
17832;SDS011;9041;49.718;21.798;2023-02-01T15:35:52;12.30;;;6.73;;